Time;durP1;ratioP1;P1;durP2;ratioP2;P2;SDS_P1;SDS_P2;PMS_P1;PMS_P2;Temp;Humidity;BMP_temperature;BMP_pressure;BME280_temperature;BME280_humidity;BME280_pressure;Samples;Min_cycle;Max_cycle;Signal;HPM_P1;HPM_P2
2024/03/01 00:00:16;;;;;;;45.17;22.55;;;;;;;8.38;100.00;100312.75;5089398;28;20028;-77
2024/03/01 00:02:41;;;;;;;45.13;21.27;;;;;;;8.31;100.00;100312.69;5088561;28;20036;-77
2024/03/01 00:05:07;;;;;;;43.88;22.05;;;;;;;8.11;100.00;100309.13;5088755;28;20052;-77
2024/03/01 00:07:32;;;;;;;42.47;21.52;;;;;;;7.99;100.00;100298.25;5089132;28;20036;-77
2024/03/01 00:09:57;;;;;;;43.72;21.60;;;;;;;8.07;100.00;100278.66;5088821;28;20119;-76
2024/03/01 00:12:23;;;;;;;44.25;21.20;;;;;;;8.22;100.00;100290.00;5070413;28;20493;-77
2024/03/01 00:14:48;;;;;;;40.58;18.98;;;;;;;8.15;100.00;100273.19;5089321;28;20040;-77
2024/03/01 00:17:14;;;;;;;40.30;20.02;;;;;;;8.01;100.00;100249.25;5080218;28;20116;-77
2024/03/01 00:19:39;;;;;;;40.47;20.80;;;;;;;7.90;100.00;100241.81;5078232;28;20416;-77
2024/03/01 00:22:04;;;;;;;41.38;20.35;;;;;;;8.22;100.00;100295.31;5077489;28;20104;-77
2024/03/01 00:24:30;;;;;;;45.10;20.75;;;;;;;8.17;100.00;100287.09;5081430;28;20037;-77
2024/03/01 00:26:55;;;;;;;41.28;21.20;;;;;;;8.30;100.00;100271.22;5078253;28;20178;-77
2024/03/01 00:29:21;;;;;;;42.08;21.38;;;;;;;8.30;100.00;100257.94;5080133;28;20485;-77
2024/03/01 00:31:46;;;;;;;43.85;21.02;;;;;;;8.16;100.00;100250.94;5093954;28;20037;-77
2024/03/01 00:34:11;;;;;;;42.05;21.13;;;;;;;8.18;100.00;100276.28;5080845;28;20115;-77
2024/03/01 00:36:37;;;;;;;42.90;22.67;;;;;;;7.99;100.00;100258.44;5078563;28;20036;-78
2024/03/01 00:39:02;;;;;;;43.90;20.70;;;;;;;7.83;100.00;100251.59;5078890;28;20108;-77
2024/03/01 00:41:28;;;;;;;42.78;21.17;;;;;;;7.74;100.00;100248.25;5082367;28;20028;-76
2024/03/01 00:43:55;;;;;;;44.42;22.13;;;;;;;7.73;100.00;100272.38;5094955;28;20111;-77
2024/03/01 00:46:21;;;;;;;45.60;22.13;;;;;;;7.77;100.00;100263.00;5086868;28;20187;-77
2024/03/01 00:48:48;;;;;;;42.47;21.75;;;;;;;7.96;100.00;100246.34;5088030;28;20734;-78
2024/03/01 00:51:13;;;;;;;44.22;21.98;;;;;;;7.90;100.00;100235.69;5082575;28;20020;-77
2024/03/01 00:53:39;;;;;;;41.40;21.02;;;;;;;7.80;100.00;100220.13;5065641;28;20031;-77
2024/03/01 00:56:04;;;;;;;43.05;22.35;;;;;;;7.89;100.00;100229.56;5077545;28;20034;-78
2024/03/01 00:58:30;;;;;;;42.13;21.27;;;;;;;7.86;100.00;100235.25;5076953;28;20060;-78
2024/03/01 01:00:55;;;;;;;43.25;19.85;;;;;;;7.74;100.00;100212.94;5074719;28;20494;-78
2024/03/01 01:03:20;;;;;;;42.65;21.13;;;;;;;7.83;100.00;100222.38;5080758;28;20024;-76
2024/03/01 01:05:46;;;;;;;40.67;20.98;;;;;;;7.78;100.00;100216.84;5086355;28;20500;-77
2024/03/01 01:08:11;;;;;;;39.78;21.15;;;;;;;7.87;100.00;100201.56;5087840;28;20067;-76
2024/03/01 01:10:37;;;;;;;40.97;19.98;;;;;;;7.85;100.00;100199.94;5069604;28;20024;-78
2024/03/01 01:13:02;;;;;;;43.83;21.23;;;;;;;7.56;100.00;100153.25;5084904;28;20028;-77
2024/03/01 01:15:28;;;;;;;40.72;20.52;;;;;;;7.78;100.00;100184.97;5083080;28;20028;-77
2024/03/01 01:17:53;;;;;;;46.58;21.50;;;;;;;7.83;100.00;100193.19;5103516;28;20024;-77
2024/03/01 01:20:18;;;;;;;40.42;20.98;;;;;;;7.75;100.00;100174.78;5101657;28;20031;-78
2024/03/01 01:22:44;;;;;;;41.38;20.83;;;;;;;7.78;100.00;100184.97;5083674;28;20990;-77
2024/03/01 01:25:09;;;;;;;39.95;19.33;;;;;;;7.57;100.00;100178.75;5086913;28;20028;-76
2024/03/01 01:27:35;;;;;;;44.45;21.42;;;;;;;7.76;100.00;100192.31;5087221;28;20048;-78
2024/03/01 01:30:00;;;;;;;39.67;20.05;;;;;;;7.58;100.00;100191.03;5069071;28;20040;-76
2024/03/01 01:32:26;;;;;;;47.13;21.60;;;;;;;7.50;100.00;100166.47;5069154;28;20138;-76
2024/03/01 01:34:52;;;;;;;45.10;22.38;;;;;;;7.54;100.00;100181.81;5086845;28;20048;-76
2024/03/01 01:37:18;;;;;;;41.95;21.23;;;;;;;7.52;100.00;100175.88;5087213;28;20028;-78
2024/03/01 01:39:43;;;;;;;42.15;20.45;;;;;;;7.35;100.00;100182.50;5086906;28;20089;-77
2024/03/01 01:42:09;;;;;;;59.53;30.20;;;;;;;7.07;100.00;100156.84;5087115;28;20032;-76
2024/03/01 01:44:34;;;;;;;48.72;22.08;;;;;;;7.12;100.00;100190.72;5068687;28;20133;-76
2024/03/01 01:47:01;;;;;;;50.55;21.90;;;;;;;7.04;100.00;100157.22;5068688;28;20474;-76
2024/03/01 01:49:28;;;;;;;47.53;22.88;;;;;;;7.06;100.00;100179.06;5085925;28;20506;-77
2024/03/01 01:51:54;;;;;;;48.78;23.75;;;;;;;7.10;100.00;100167.03;5086773;28;20035;-76
2024/03/01 01:54:20;;;;;;;45.97;22.27;;;;;;;7.24;100.00;100163.47;5068564;28;20032;-77
2024/03/01 01:56:46;;;;;;;46.70;23.05;;;;;;;7.13;100.00;100161.38;5087143;28;20954;-76
2024/03/01 01:59:13;;;;;;;48.92;22.33;;;;;;;7.16;100.00;100166.28;5086999;28;20070;-77
2024/03/01 02:01:41;;;;;;;52.13;23.30;;;;;;;7.13;100.00;100149.91;5068589;28;20052;-77
2024/03/01 02:04:06;;;;;;;48.95;24.02;;;;;;;7.10;100.00;100161.75;5063844;28;20024;-77
2024/03/01 02:06:31;;;;;;;51.63;23.08;;;;;;;7.35;100.00;100174.56;5059761;28;20028;-77
2024/03/01 02:08:57;;;;;;;52.15;23.25;;;;;;;7.32;100.00;100151.06;5079829;28;20414;-76
2024/03/01 02:11:24;;;;;;;54.50;23.60;;;;;;;7.23;100.00;100139.78;5085258;28;20030;-76
2024/03/01 02:13:56;;;;;;;57.47;26.83;;;;;;;7.42;100.00;100164.81;5086615;28;20043;-78
2024/03/01 02:16:23;;;;;;;52.92;23.40;;;;;;;7.37;100.00;100167.22;5086663;28;20032;-77
2024/03/01 02:18:50;;;;;;;50.20;22.30;;;;;;;7.38;100.00;100163.56;5086747;28;20089;-77
2024/03/01 02:21:21;;;;;;;53.03;25.10;;;;;;;7.31;100.00;100152.06;5086134;28;20031;-77
2024/03/01 02:23:47;;;;;;;56.28;25.60;;;;;;;7.30;100.00;100134.53;5086125;28;20435;-77
2024/03/01 02:26:13;;;;;;;56.85;26.10;;;;;;;7.22;100.00;100149.59;5086468;28;20031;-77
2024/03/01 02:28:46;;;;;;;57.38;26.38;;;;;;;7.22;100.00;100154.06;5068371;28;20040;-76
2024/03/01 02:31:12;;;;;;;56.25;27.63;;;;;;;7.23;100.00;100156.53;5086479;28;20439;-77
2024/03/01 02:33:38;;;;;;;73.57;33.88;;;;;;;7.35;100.00;100148.84;5068204;28;20119;-77
2024/03/01 02:36:04;;;;;;;59.78;27.98;;;;;;;7.16;100.00;100117.72;5086554;28;20143;-76
2024/03/01 02:38:30;;;;;;;75.93;38.03;;;;;;;7.15;100.00;100131.97;5086320;28;20027;-76
2024/03/01 02:40:55;;;;;;;79.13;38.75;;;;;;;7.06;100.00;100119.91;5086498;28;20090;-76
2024/03/01 02:43:20;;;;;;;65.88;34.80;;;;;;;7.17;100.00;100128.13;5068226;28;20135;-76
2024/03/01 02:45:46;;;;;;;77.25;38.42;;;;;;;7.08;100.00;100109.91;5068599;28;20043;-76
2024/03/01 02:48:11;;;;;;;71.97;31.50;;;;;;;7.12;100.00;100101.38;5068730;28;20040;-76
2024/03/01 02:50:37;;;;;;;77.53;36.75;;;;;;;7.21;100.00;100118.78;5068285;28;20032;-76
2024/03/01 02:53:02;;;;;;;75.30;33.92;;;;;;;7.17;100.00;100130.78;5081885;28;20093;-76
2024/03/01 02:55:28;;;;;;;91.28;41.38;;;;;;;7.09;100.00;100120.34;5086323;28;20035;-76
2024/03/01 02:57:54;;;;;;;76.53;36.35;;;;;;;7.23;100.00;100130.00;5088262;28;20025;-76
2024/03/01 03:00:21;;;;;;;66.88;30.98;;;;;;;6.81;100.00;100089.34;5096172;28;20098;-77
2024/03/01 03:02:46;;;;;;;90.45;45.28;;;;;;;7.12;100.00;100114.63;5100871;28;20097;-77
2024/03/01 03:05:12;;;;;;;122.47;59.38;;;;;;;7.12;100.00;100117.28;5082833;28;20024;-77
2024/03/01 03:07:39;;;;;;;77.90;36.65;;;;;;;7.28;100.00;100124.13;5100708;28;20035;-77
2024/03/01 03:10:05;;;;;;;90.93;44.63;;;;;;;7.35;100.00;100129.44;5080880;28;20023;-77
2024/03/01 03:12:31;;;;;;;59.40;24.80;;;;;;;7.07;100.00;100100.31;5116681;28;20059;-77
2024/03/01 03:14:57;;;;;;;70.57;33.40;;;;;;;7.30;100.00;100126.59;5099618;28;20117;-77
2024/03/01 03:17:25;;;;;;;65.13;31.80;;;;;;;7.17;100.00;100109.56;5098183;28;20071;-77
2024/03/01 03:19:51;;;;;;;;;;;;;;;7.15;100.00;100124.03;5099485;28;20408;-76
2024/03/01 03:22:17;;;;;;;52.97;24.00;;;;;;;7.10;100.00;100113.19;5098385;28;19919;-77
2024/03/01 03:24:42;;;;;;;64.97;28.35;;;;;;;6.97;100.00;100098.84;5097334;28;20407;-76
2024/03/01 03:27:08;;;;;;;67.82;30.88;;;;;;;6.86;100.00;100085.31;5097598;28;20075;-77
2024/03/01 03:29:34;;;;;;;63.90;28.77;;;;;;;6.97;100.00;100108.63;5097541;28;20039;-77
2024/03/01 03:31:59;;;;;;;62.53;27.67;;;;;;;6.63;100.00;100071.28;5094732;28;20405;-77
2024/03/01 03:34:25;;;;;;;88.15;38.25;;;;;;;6.88;100.00;100057.56;5092637;28;20028;-77
2024/03/01 03:36:50;;;;;;;67.03;31.23;;;;;;;6.86;100.00;100080.00;5091793;28;20024;-77
2024/03/01 03:39:16;;;;;;;70.95;31.00;;;;;;;6.82;100.00;100080.41;5091579;28;20150;-77
2024/03/01 03:41:42;;;;;;;66.32;28.50;;;;;;;6.88;100.00;100072.66;5091072;28;20058;-77
2024/03/01 03:44:08;;;;;;;68.18;30.02;;;;;;;6.80;100.00;100089.53;5090266;28;20044;-77
2024/03/01 03:46:34;;;;;;;73.53;30.70;;;;;;;6.69;100.00;100114.75;5089968;28;20047;-76
2024/03/01 03:48:59;;;;;;;61.47;27.55;;;;;;;6.69;100.00;100112.09;5089931;28;20035;-77
2024/03/01 03:51:29;;;;;;;68.10;28.85;;;;;;;6.72;100.00;100095.81;5089920;28;20043;-77
2024/03/01 03:53:58;;;;;;;63.47;27.52;;;;;;;6.72;100.00;100103.78;5089449;28;20043;-76
2024/03/01 03:56:23;;;;;;;66.85;29.05;;;;;;;6.75;100.00;100099.91;5089276;28;20039;-76
2024/03/01 03:58:49;;;;;;;67.00;28.08;;;;;;;6.69;100.00;100087.44;5089079;28;20032;-76
2024/03/01 04:01:15;;;;;;;62.42;26.80;;;;;;;6.45;100.00;100068.28;5089047;28;20686;-76
2024/03/01 04:03:41;;;;;;;57.05;24.17;;;;;;;6.70;100.00;100097.84;5071293;28;20038;-77
2024/03/01 04:06:08;;;;;;;65.03;28.17;;;;;;;6.99;100.00;100088.06;5086757;28;20032;-76
2024/03/01 04:08:38;;;;;;;59.13;26.63;;;;;;;6.77;100.00;100077.50;5071044;28;20024;-76
2024/03/01 04:11:05;;;;;;;58.00;25.63;;;;;;;6.82;100.00;100074.25;5088602;28;20081;-76
2024/03/01 04:13:34;;;;;;;59.47;26.77;;;;;;;6.90;100.00;100071.44;5088034;28;20445;-76
2024/03/01 04:16:00;;;;;;;55.10;24.65;;;;;;;6.63;100.00;100070.47;5089053;28;20070;-76
2024/03/01 04:18:28;;;;;;;58.35;26.58;;;;;;;6.57;100.00;100077.34;5070839;28;20039;-76
2024/03/01 04:20:58;;;;;;;61.25;25.17;;;;;;;6.60;100.00;100076.16;5088409;28;20028;-77
2024/03/01 04:23:24;;;;;;;55.45;24.73;;;;;;;6.31;100.00;100029.47;5070116;28;20031;-76
2024/03/01 04:25:51;;;;;;;54.03;24.33;;;;;;;6.70;100.00;100074.00;5070528;28;20081;-76
2024/03/01 04:28:26;;;;;;;47.30;21.65;;;;;;;6.77;100.00;100077.50;5087778;28;20064;-77
2024/03/01 04:30:52;;;;;;;57.72;23.55;;;;;;;6.55;100.00;100073.25;5088626;28;20036;-76
2024/03/01 04:33:18;;;;;;;55.50;22.85;;;;;;;6.53;100.00;100080.59;5088091;28;20054;-76
2024/03/01 04:35:43;;;;;;;56.97;24.65;;;;;;;6.66;100.00;100069.25;5088509;28;20089;-77
2024/03/01 04:38:10;;;;;;;61.15;28.42;;;;;;;6.63;100.00;100076.56;5070076;28;20032;-77
2024/03/01 04:40:37;;;;;;;59.20;27.77;;;;;;;6.60;100.00;100081.47;5088529;28;20024;-76
2024/03/01 04:43:06;;;;;;;61.13;28.35;;;;;;;6.52;100.00;100055.09;5085590;28;20116;-75
2024/03/01 04:45:32;;;;;;;61.17;24.77;;;;;;;6.60;100.00;100052.31;5087844;28;20034;-75
2024/03/01 04:47:57;;;;;;;56.80;24.38;;;;;;;6.67;100.00;100060.31;5088314;28;20108;-77
2024/03/01 04:50:23;;;;;;;57.42;24.90;;;;;;;6.44;100.00;100040.97;5087691;28;20020;-78
2024/03/01 04:52:48;;;;;;;51.97;23.25;;;;;;;6.44;100.00;100059.53;5088002;28;20032;-77
2024/03/01 04:55:14;;;;;;;58.90;25.48;;;;;;;6.46;100.00;100045.25;5087764;28;20028;-76
2024/03/01 04:57:40;;;;;;;49.35;20.77;;;;;;;6.53;100.00;100075.28;5087952;28;20036;-76
2024/03/01 05:00:12;;;;;;;57.95;24.77;;;;;;;6.32;100.00;100063.72;5087886;28;20056;-76
2024/03/01 05:02:43;;;;;;;51.42;22.35;;;;;;;6.46;100.00;100050.56;5087950;28;20024;-76
2024/03/01 05:05:14;;;;;;;63.00;26.98;;;;;;;6.53;100.00;100038.19;5087621;28;20032;-76
2024/03/01 05:07:40;;;;;;;60.80;26.63;;;;;;;6.73;100.00;100052.41;5087845;28;20060;-76
2024/03/01 05:10:09;;;;;;;60.40;27.48;;;;;;;6.61;100.00;100061.88;5087620;28;20565;-77
2024/03/01 05:12:41;;;;;;;63.03;28.35;;;;;;;6.52;100.00;100068.34;5087552;28;20039;-77
2024/03/01 05:15:08;;;;;;;55.20;22.92;;;;;;;6.42;100.00;100066.03;5087423;28;20452;-76
2024/03/01 05:17:40;;;;;;;59.45;22.77;;;;;;;6.34;100.00;100048.44;5069289;28;20027;-77
2024/03/01 05:20:10;;;;;;;75.38;34.90;;;;;;;6.33;100.00;100032.72;5087821;28;20024;-77
2024/03/01 05:22:37;;;;;;;68.55;28.63;;;;;;;6.34;100.00;100056.38;5087580;28;20547;-77
2024/03/01 05:25:17;;;;;;;68.45;31.05;;;;;;;6.50;100.00;100063.25;5086298;28;20039;-77
2024/03/01 05:27:48;;;;;;;61.30;25.92;;;;;;;6.31;100.00;100045.34;5086989;28;20051;-77
2024/03/01 05:30:17;;;;;;;60.30;27.58;;;;;;;6.28;100.00;100035.16;5087545;28;20024;-77
2024/03/01 05:32:43;;;;;;;61.85;27.88;;;;;;;6.37;100.00;100071.88;5087112;28;20040;-76
2024/03/01 05:35:12;;;;;;;64.15;27.13;;;;;;;6.46;100.00;100066.44;5086751;28;20108;-76
2024/03/01 05:37:38;;;;;;;66.78;30.52;;;;;;;6.72;100.00;100085.22;5087397;28;20103;-77
2024/03/01 05:40:05;;;;;;;61.25;28.33;;;;;;;6.66;100.00;100071.91;5087769;28;20110;-76
2024/03/01 05:42:31;;;;;;;64.37;28.13;;;;;;;6.88;100.00;100075.31;5086546;28;20425;-77
2024/03/01 05:44:57;;;;;;;68.60;32.60;;;;;;;7.06;100.00;100080.94;5086727;28;20454;-76
2024/03/01 05:47:23;;;;;;;59.65;24.95;;;;;;;6.94;100.00;100090.44;5068669;28;20063;-76
2024/03/01 05:49:48;;;;;;;52.40;23.73;;;;;;;6.53;100.00;100080.59;5087342;28;20085;-77
2024/03/01 05:52:14;;;;;;;60.03;24.90;;;;;;;6.62;100.00;100084.75;5086764;28;20032;-77
2024/03/01 05:54:40;;;;;;;57.00;25.52;;;;;;;6.63;100.00;100092.47;5086793;28;20053;-76
2024/03/01 05:57:07;;;;;;;57.65;25.00;;;;;;;6.61;100.00;100080.44;5086576;28;20036;-76
2024/03/01 05:59:33;;;;;;;50.57;23.87;;;;;;;6.65;100.00;100057.84;5086932;28;20031;-77
2024/03/01 06:01:58;;;;;;;58.53;25.63;;;;;;;6.83;100.00;100075.91;5086567;28;20715;-77
2024/03/01 06:04:23;;;;;;;57.03;26.40;;;;;;;7.08;100.00;100092.16;5086873;28;20036;-76
2024/03/01 06:06:49;;;;;;;58.25;25.35;;;;;;;7.03;100.00;100107.84;5067888;28;20883;-77
2024/03/01 06:09:16;;;;;;;66.18;28.25;;;;;;;6.74;100.00;100115.00;5086686;28;20028;-75
2024/03/01 06:11:41;;;;;;;71.70;31.80;;;;;;;6.60;100.00;100108.78;5086481;28;20024;-77
2024/03/01 06:14:07;;;;;;;67.95;27.92;;;;;;;6.43;100.00;100075.59;5086414;28;20366;-77
2024/03/01 06:16:33;;;;;;;57.00;22.83;;;;;;;6.56;100.00;100096.06;5086624;28;20100;-76
2024/03/01 06:18:59;;;;;;;60.40;25.60;;;;;;;6.76;100.00;100114.78;5086438;28;20478;-74
2024/03/01 06:21:25;;;;;;;59.25;25.38;;;;;;;6.80;100.00;100116.03;5086506;28;20111;-76
2024/03/01 06:23:50;;;;;;;58.40;25.00;;;;;;;6.79;100.00;100106.47;5086073;28;20032;-78
2024/03/01 06:26:16;;;;;;;56.88;25.42;;;;;;;6.87;100.00;100118.75;5086925;28;20020;-78
2024/03/01 06:28:44;;;;;;;49.63;21.00;;;;;;;6.91;100.00;100130.63;5067676;28;20043;-77
2024/03/01 06:31:10;;;;;;;;;;;;;;;7.03;100.00;100110.50;5068899;28;20842;-76
2024/03/01 06:33:35;;;;;;;48.92;22.85;;;;;;;7.00;100.00;100101.09;5067920;28;19920;-77
2024/03/01 06:36:02;;;;;;;50.75;22.17;;;;;;;6.98;100.00;100112.91;5091265;28;20036;-76
2024/03/01 06:38:28;;;;;;;54.30;21.92;;;;;;;6.90;100.00;100118.38;5093176;28;20092;-76
2024/03/01 06:40:53;;;;;;;49.97;21.05;;;;;;;6.83;100.00;100103.22;5093265;28;20059;-76
2024/03/01 06:43:18;;;;;;;58.95;24.30;;;;;;;6.99;100.00;100106.59;5093018;28;20028;-77
2024/03/01 06:45:44;;;;;;;55.58;22.48;;;;;;;7.03;100.00;100113.16;5092888;28;20031;-75
2024/03/01 06:48:11;;;;;;;47.08;22.63;;;;;;;7.01;100.00;100117.84;5092828;28;20028;-76
2024/03/01 06:50:36;;;;;;;50.50;22.75;;;;;;;7.06;100.00;100107.47;5093083;28;20070;-77
2024/03/01 06:53:01;;;;;;;52.08;22.98;;;;;;;7.22;100.00;100104.50;5092894;28;20115;-76
2024/03/01 06:55:27;;;;;;;38.78;18.08;;;;;;;7.26;100.00;100118.19;5092633;28;20059;-77
2024/03/01 06:57:52;;;;;;;43.08;19.95;;;;;;;7.08;100.00;100129.28;5092916;28;20028;-77
2024/03/01 07:00:18;;;;;;;42.03;20.17;;;;;;;6.99;100.00;100123.34;5092856;28;20407;-77
2024/03/01 07:02:43;;;;;;;42.60;19.92;;;;;;;7.03;100.00;100113.16;5092972;28;20615;-75
2024/03/01 07:05:09;;;;;;;43.42;20.45;;;;;;;7.20;100.00;100095.09;5092614;28;20047;-76
2024/03/01 07:07:35;;;;;;;48.22;20.85;;;;;;;7.13;100.00;100103.03;5092837;28;20679;-76
2024/03/01 07:10:02;;;;;;;56.95;24.48;;;;;;;7.19;100.00;100093.44;5092667;28;20060;-75
2024/03/01 07:12:27;;;;;;;65.05;32.42;;;;;;;7.03;100.00;100078.69;5092946;28;20037;-77
2024/03/01 07:14:53;;;;;;;92.40;45.38;;;;;;;6.67;100.00;100039.91;5092613;28;20114;-77
2024/03/01 07:17:18;;;;;;;188.70;84.57;;;;;;;6.78;100.00;100060.59;5074200;28;20032;-77
2024/03/01 07:19:44;;;;;;;61.70;29.60;;;;;;;7.06;100.00;100086.25;5092806;28;20038;-75
2024/03/01 07:22:09;;;;;;;94.20;66.28;;;;;;;7.31;100.00;100099.84;5074287;28;20134;-78
2024/03/01 07:24:35;;;;;;;53.10;26.17;;;;;;;7.09;100.00;100091.16;5074940;28;20119;-77
2024/03/01 07:27:01;;;;;;;53.17;26.45;;;;;;;7.22;100.00;100106.34;5092196;28;20119;-78
2024/03/01 07:29:28;;;;;;;52.30;24.17;;;;;;;7.14;100.00;100087.91;5092359;28;20028;-77
2024/03/01 07:31:54;;;;;;;59.28;27.33;;;;;;;7.29;100.00;100106.34;5092391;28;20758;-75
2024/03/01 07:34:19;;;;;;;52.45;26.98;;;;;;;7.35;100.00;100089.66;5092088;28;20035;-77
2024/03/01 07:36:45;;;;;;;49.15;24.92;;;;;;;7.19;100.00;100081.03;5092363;28;20036;-77
2024/03/01 07:39:11;;;;;;;54.13;26.73;;;;;;;7.23;100.00;100097.34;5081778;28;20031;-77
2024/03/01 07:41:36;;;;;;;51.95;24.38;;;;;;;7.17;100.00;100109.56;5074303;28;20070;-76
2024/03/01 07:44:02;;;;;;;55.88;23.75;;;;;;;7.12;100.00;100096.06;5092629;28;20111;-77
2024/03/01 07:46:27;;;;;;;64.47;28.40;;;;;;;7.17;100.00;100114.88;5090505;28;20028;-77
2024/03/01 07:48:53;;;;;;;54.38;22.83;;;;;;;6.84;100.00;100104.88;5089211;28;20077;-78
2024/03/01 07:51:18;;;;;;;56.78;26.30;;;;;;;6.95;100.00;100108.81;5089388;28;20043;-78
2024/03/01 07:53:44;;;;;;;56.53;27.20;;;;;;;6.90;100.00;100087.38;5070684;28;20061;-76
2024/03/01 07:56:10;;;;;;;58.15;26.45;;;;;;;7.09;100.00;100085.88;5088905;28;20170;-78
2024/03/01 07:58:35;;;;;;;80.68;37.58;;;;;;;7.40;100.00;100073.97;5070437;28;20464;-76
2024/03/01 08:01:01;;;;;;;49.78;23.48;;;;;;;7.26;100.00;100086.34;5079435;28;20028;-79
2024/03/01 08:03:27;;;;;;;53.83;24.92;;;;;;;7.22;100.00;100085.91;5080278;28;20032;-77
2024/03/01 08:05:53;;;;;;;41.92;20.00;;;;;;;7.34;100.00;100112.72;5088817;28;20054;-78
2024/03/01 08:08:37;;;;;;;46.60;23.90;;;;;;;7.33;100.00;100065.16;5087921;28;20069;-77
2024/03/01 08:11:08;;;;;;;42.13;19.35;;;;;;;7.22;100.00;100050.63;5077614;28;20031;-79
2024/03/01 08:13:34;;;;;;;71.47;35.95;;;;;;;7.61;100.00;100081.00;5088329;28;20020;-77
2024/03/01 08:16:00;;;;;;;46.10;22.77;;;;;;;7.82;100.00;100069.41;5088777;28;20814;-77
2024/03/01 08:18:25;;;;;;;48.60;24.63;;;;;;;7.37;100.00;100058.44;5070145;28;20103;-76
2024/03/01 08:21:07;;;;;;;35.58;17.45;;;;;;;7.73;100.00;100081.25;5070347;28;20066;-78
2024/03/01 08:23:42;;;;;;;39.70;19.60;;;;;;;7.72;100.00;100082.25;5088461;28;20032;-77
2024/03/01 08:26:19;;;;;;;44.22;24.13;;;;;;;7.72;100.00;100079.59;5088923;28;20119;-77
2024/03/01 08:28:46;;;;;;;38.53;20.17;;;;;;;7.67;100.00;100098.78;5088521;28;20052;-77
2024/03/01 08:31:25;;;;;;;43.33;20.48;;;;;;;7.50;100.00;100087.69;5088497;28;20031;-77
2024/03/01 08:34:21;;;;;;;38.70;19.67;;;;;;;7.74;100.00;100072.25;5088030;28;20511;-78
2024/03/01 08:36:46;;;;;;;42.08;20.42;;;;;;;7.75;100.00;100089.81;5087958;28;20028;-78
2024/03/01 08:39:15;;;;;;;41.00;20.58;;;;;;;7.93;100.00;100092.72;5062178;28;20036;-78
2024/03/01 08:41:44;;;;;;;42.45;23.27;;;;;;;7.98;100.00;100106.22;5102167;27;20048;-77
2024/03/01 08:44:46;;;;;;;73.65;50.83;;;;;;;8.29;100.00;100091.53;5088278;28;20161;-78
2024/03/01 08:47:22;;;;;;;55.20;38.97;;;;;;;8.39;100.00;100112.41;5081241;28;20036;-77
2024/03/01 08:49:51;;;;;;;46.08;24.27;;;;;;;8.41;100.00;100127.16;5088203;28;20036;-78
2024/03/01 08:52:36;;;;;;;48.15;28.85;;;;;;;8.30;100.00;100127.75;5087755;28;20081;-77
2024/03/01 08:55:17;;;;;;;39.58;20.40;;;;;;;8.25;100.00;100100.94;5085380;28;20028;-77
2024/03/01 08:57:44;;;;;;;39.13;21.30;;;;;;;8.54;100.00;100114.91;5085163;28;20039;-77
2024/03/01 09:00:36;;;;;;;39.57;21.57;;;;;;;8.32;100.00;100072.56;5084396;28;20042;-76
2024/03/01 09:03:03;;;;;;;52.80;26.63;;;;;;;8.62;100.00;100090.75;5087839;28;20062;-76
2024/03/01 09:05:30;;;;;;;39.65;22.23;;;;;;;8.47;100.00;100060.94;5087640;28;20024;-78
2024/03/01 09:07:57;;;;;;;51.30;29.60;;;;;;;8.57;100.00;100093.25;5102383;28;20032;-77
2024/03/01 09:10:29;;;;;;;64.75;37.63;;;;;;;8.80;100.00;100104.25;5080914;28;20037;-77
2024/03/01 09:12:55;;;;;;;45.55;23.90;;;;;;;8.83;100.00;100095.88;5084770;28;20557;-78
2024/03/01 09:15:25;;;;;;;36.35;19.60;;;;;;;8.81;100.00;100091.78;5086054;28;20029;-77
2024/03/01 09:17:52;;;;;;;43.45;22.20;;;;;;;8.81;100.00;100084.63;5084221;28;20032;-77
2024/03/01 09:20:37;;;;;;;41.08;21.48;;;;;;;9.15;100.00;100093.34;5072184;28;20064;-77
2024/03/01 09:23:06;;;;;;;37.97;20.55;;;;;;;8.74;100.00;100088.31;5071557;28;20032;-77
2024/03/01 09:25:41;;;;;;;41.05;22.40;;;;;;;8.80;100.00;100082.97;5089054;28;20024;-77
2024/03/01 09:28:07;;;;;;;40.05;20.98;;;;;;;8.50;100.00;100073.78;5086525;28;20056;-78
2024/03/01 09:30:32;;;;;;;40.70;20.50;;;;;;;8.58;100.00;100078.91;5087798;28;20064;-77
2024/03/01 09:32:58;;;;;;;37.92;19.92;;;;;;;8.73;100.00;100068.88;5069135;28;20064;-76
2024/03/01 09:35:25;;;;;;;43.13;22.52;;;;;;;8.81;100.00;100068.66;5087080;28;20028;-76
2024/03/01 09:37:52;;;;;;;38.30;20.60;;;;;;;8.89;100.00;100074.78;5086606;28;20028;-77
2024/03/01 09:40:37;;;;;;;37.58;19.55;;;;;;;8.80;100.00;100072.34;5087212;28;20093;-77
2024/03/01 09:43:24;;;;;;;42.05;20.15;;;;;;;8.59;100.00;100081.38;5086963;28;20059;-78
2024/03/01 09:46:08;;;;;;;37.53;20.10;;;;;;;8.56;100.00;100065.00;5074743;28;20103;-77
2024/03/01 09:48:42;;;;;;;38.35;19.67;;;;;;;8.64;100.00;100059.47;5086839;28;20114;-76
2024/03/01 09:51:26;;;;;;;35.90;19.35;;;;;;;8.81;100.00;100062.53;5066801;28;20032;-78
2024/03/01 09:53:51;;;;;;;39.08;19.50;;;;;;;8.98;100.00;100077.03;5075443;28;20085;-77
2024/03/01 09:56:49;;;;;;;36.30;20.33;;;;;;;8.88;100.00;100105.06;5087035;28;20044;-78
2024/03/01 09:59:26;;;;;;;35.85;18.42;;;;;;;9.14;100.00;100089.06;5062069;28;20040;-76
2024/03/01 10:02:02;;;;;;;39.63;20.98;;;;;;;8.94;100.00;100088.28;5086828;28;20088;-78
2024/03/01 10:05:09;;;;;;;37.83;20.73;;;;;;;8.76;100.00;100097.72;5086329;28;20065;-77
2024/03/01 10:07:49;;;;;;;35.33;18.60;;;;;;;8.79;100.00;100102.63;4984591;28;20042;-77
2024/03/01 10:10:34;;;;;;;37.33;19.35;;;;;;;9.07;100.00;100093.56;5074863;28;20263;-77
2024/03/01 10:13:14;;;;;;;35.88;18.77;;;;;;;8.68;100.00;100078.50;5086706;28;20020;-76
2024/03/01 10:15:48;;;;;;;33.70;18.77;;;;;;;8.91;100.00;100080.72;5086296;28;20534;-76
2024/03/01 10:18:32;;;;;;;30.48;15.90;;;;;;;8.94;100.00;100077.66;5086547;28;20024;-77
2024/03/01 10:21:05;;;;;;;38.72;18.88;;;;;;;8.87;100.00;100069.69;5086256;28;20718;-77
2024/03/01 10:23:55;;;;;;;39.85;18.85;;;;;;;8.78;100.00;100077.03;5086688;28;20028;-77
2024/03/01 10:26:28;;;;;;;33.20;18.58;;;;;;;8.92;100.00;100061.88;5076990;28;20157;-76
2024/03/01 10:29:20;;;;;;;33.33;16.70;;;;;;;8.93;100.00;100046.75;5086205;28;20032;-77
2024/03/01 10:32:00;;;;;;;34.33;17.75;;;;;;;8.71;100.00;100068.28;5086407;28;20063;-78
2024/03/01 10:34:41;;;;;;;33.20;17.25;;;;;;;8.79;100.00;100069.91;5086294;28;20039;-78
2024/03/01 10:37:14;;;;;;;32.78;16.92;;;;;;;8.72;100.00;100040.66;5067959;28;20036;-77
2024/03/01 10:39:50;;;;;;;32.33;16.20;;;;;;;8.73;100.00;100029.00;5086157;28;20031;-77
2024/03/01 10:42:19;;;;;;;29.20;14.82;;;;;;;8.91;100.00;100062.09;5086553;28;20401;-78
2024/03/01 10:44:51;;;;;;;33.05;15.55;;;;;;;9.00;100.00;100058.19;5086072;28;20059;-77
2024/03/01 10:47:17;;;;;;;28.23;14.88;;;;;;;8.90;100.00;100045.31;5085867;28;20036;-76
2024/03/01 10:50:10;;;;;;;32.35;16.25;;;;;;;8.69;100.00;100006.53;5086142;28;20032;-77
2024/03/01 10:52:44;;;;;;;31.05;17.77;;;;;;;8.67;100.00;100029.03;5053010;28;20036;-77
2024/03/01 10:55:19;;;;;;;31.77;18.10;;;;;;;8.93;100.00;100044.91;5079654;28;20033;-77
2024/03/01 10:57:56;;;;;;;32.28;18.30;;;;;;;9.00;100.00;100050.22;5081882;28;20516;-78
2024/03/01 11:00:26;;;;;;;33.53;18.10;;;;;;;9.25;100.00;100023.72;5077948;28;20047;-77
2024/03/01 11:03:07;;;;;;;34.00;19.00;;;;;;;9.53;100.00;100023.41;5055371;28;20342;-77
2024/03/01 11:05:39;;;;;;;39.65;20.88;;;;;;;9.46;100.00;100001.34;5077555;28;20032;-77
2024/03/01 11:08:26;;;;;;;42.50;22.60;;;;;;;9.45;100.00;100031.63;5077467;28;20119;-78
2024/03/01 11:11:10;;;;;;;35.30;18.50;;;;;;;9.24;100.00;100017.59;5085546;28;20032;-78
2024/03/01 11:13:39;;;;;;;36.03;20.60;;;;;;;9.42;100.00;100000.13;5086011;28;20551;-77
2024/03/01 11:16:06;;;;;;;;;;;;;;;9.64;100.00;100004.09;5086206;28;20028;-78